Time;durP1;ratioP1;P1;durP2;ratioP2;P2;SDS_P1;SDS_P2;PMS_P1;PMS_P2;Temp;Humidity;BMP_temperature;BMP_pressure;BME280_temperature;BME280_humidity;BME280_pressure;Samples;Min_cycle;Max_cycle;Signal;HPM_P1;HPM_P2
2023/04/16 00:00:35;;;;;;;;;;;;;;;8.14;nan;100562.69;5018245;28;20371;-86
2023/04/16 00:03:00;;;;;;;;;;;;;;;8.12;nan;100564.63;5022887;28;19967;-87
2023/04/16 00:05:26;;;;;;;;;;;;;;;8.13;nan;100561.03;5039580;28;19924;-87
2023/04/16 00:07:51;;;;;;;;;;;;;;;8.13;nan;100563.69;5036452;28;20000;-87
2023/04/16 00:10:16;;;;;;;;;;;;;;;8.13;nan;100568.09;5035557;28;19917;-86
2023/04/16 00:12:42;;;;;;;;;;;;;;;8.14;nan;100561.88;5035923;28;19947;-86
2023/04/16 00:15:07;;;;;;;;;;;;;;;8.14;nan;100573.22;5035051;28;20012;-87
2023/04/16 00:17:32;;;;;;;;;;;;;;;8.14;nan;100575.03;5034071;28;20367;-86
2023/04/16 00:19:58;;;;;;;;;;;;;;;8.14;nan;100575.03;5035417;28;19913;-86
2023/04/16 00:22:24;;;;;;;;;;;;;;;8.13;nan;100568.94;5028176;28;19944;-86
2023/04/16 00:24:50;;;;;;;;;;;;;;;8.13;nan;100565.44;5033304;28;20003;-86
2023/04/16 00:27:16;;;;;;;;;;;;;;;8.14;nan;100567.97;5030583;28;20486;-87
2023/04/16 00:29:41;;;;;;;;;;;;;;;8.14;nan;100567.97;5014385;28;20290;-87
2023/04/16 00:32:07;;;;;;;;;;;;;;;8.14;nan;100570.59;5019777;28;20012;-87
2023/04/16 00:34:33;;;;;;;;;;;;;;;8.15;nan;100569.66;5014774;28;20279;-87
2023/04/16 00:36:58;;;;;;;;;;;;;;;8.16;nan;100566.03;5018573;28;20386;-87
2023/04/16 00:39:24;;;;;;;;;;;;;;;8.17;nan;100572.13;5022262;28;19912;-86
2023/04/16 00:41:49;;;;;;;;;;;;;;;8.17;nan;100572.94;5014116;28;19913;-87
2023/04/16 00:44:15;;;;;;;;;;;;;;;8.14;nan;100567.97;5015996;28;20294;-87
2023/04/16 00:46:40;;;;;;;;;;;;;;;8.12;nan;100574.34;5013444;28;19913;-87
2023/04/16 00:49:06;;;;;;;;;;;;;;;8.11;nan;100575.31;5021397;28;19917;-87
2023/04/16 00:51:31;;;;;;;;;;;;;;;8.14;nan;100572.41;5019604;28;20000;-87
2023/04/16 00:53:57;;;;;;;;;;;;;;;8.14;nan;100570.59;5022556;28;19913;-87
2023/04/16 00:56:23;;;;;;;;;;;;;;;8.15;nan;100571.41;5021330;28;19964;-87
2023/04/16 00:58:48;;;;;;;;;;;;;;;8.15;nan;100572.28;5030388;28;20350;-87
2023/04/16 01:01:13;;;;;;;;;;;;;;;8.16;nan;100576.56;5038493;28;20003;-87
2023/04/16 01:03:42;;;;;;;;;;;;;;;8.14;nan;100578.50;5011683;28;19992;-86
2023/04/16 01:06:08;;;;;;;;;;;;;;;8.14;nan;100575.03;5035145;28;20058;-88
2023/04/16 01:08:33;;;;;;;;;;;;;;;8.15;nan;100582.81;5052480;28;19901;-87
2023/04/16 01:10:59;;;;;;;;;;;;;;;8.12;nan;100584.88;5015373;28;20412;-87
2023/04/16 01:13:24;;;;;;;;;;;;;;;8.12;nan;100584.88;5022624;28;20014;-87
2023/04/16 01:15:50;;;;;;;;;;;;;;;8.13;nan;100586.53;5014375;28;20455;-87
2023/04/16 01:18:19;;;;;;;;;;;;;;;8.13;nan;100575.97;5013552;28;19917;-86
2023/04/16 01:20:45;;;;;;;;;;;;;;;8.14;nan;100583.75;5022472;28;20601;-87
2023/04/16 01:23:10;;;;;;;;;;;;;;;8.12;nan;100584.88;5020511;28;19913;-87
2023/04/16 01:25:36;;;;;;;;;;;;;;;8.09;nan;100581.53;5013931;28;20007;-87
2023/04/16 01:28:01;;;;;;;;;;;;;;;8.09;nan;100580.69;5021319;28;19921;-87
2023/04/16 01:30:27;;;;;;;;;;;;;;;8.08;nan;100590.41;5030284;28;19924;-87
2023/04/16 01:32:52;;;;;;;;;;;;;;;8.08;nan;100592.22;5019870;28;19964;-87
2023/04/16 01:35:17;;;;;;;;;;;;;;;8.05;nan;100587.19;5030283;28;19917;-87
2023/04/16 01:37:43;;;;;;;;;;;;;;;8.00;nan;100592.03;5025951;28;19944;-87
2023/04/16 01:40:08;;;;;;;;;;;;;;;8.01;nan;100599.00;5026483;28;19978;-86
2023/04/16 01:42:34;;;;;;;;;;;;;;;8.01;nan;100591.09;5029492;28;20505;-86
2023/04/16 01:44:59;;;;;;;;;;;;;;;8.01;nan;100599.00;5011874;28;19917;-86
2023/04/16 01:47:24;;;;;;;;;;;;;;;7.97;nan;100603.66;5019850;28;19920;-86
2023/04/16 01:49:50;;;;;;;;;;;;;;;7.96;nan;100606.44;5020333;28;19917;-87
2023/04/16 01:52:15;;;;;;;;;;;;;;;7.94;nan;100605.75;5023164;28;19912;-87
2023/04/16 01:54:40;;;;;;;;;;;;;;;7.94;nan;100603.13;5027812;28;19917;-86
2023/04/16 01:57:06;;;;;;;;;;;;;;;7.96;nan;100609.06;5029331;28;20646;-87
2023/04/16 01:59:31;;;;;;;;;;;;;;;7.97;nan;100610.75;5020249;28;19912;-87
2023/04/16 02:01:58;;;;;;;;;;;;;;;7.99;nan;100607.00;5029992;28;19913;-87
2023/04/16 02:04:24;;;;;;;;;;;;;;;8.01;nan;100606.88;5017221;28;19955;-87
2023/04/16 02:06:49;;;;;;;;;;;;;;;8.05;nan;100603.00;5011785;28;19941;-86
2023/04/16 02:09:15;;;;;;;;;;;;;;;8.08;nan;100603.59;5011797;28;19928;-86
2023/04/16 02:11:40;;;;;;;;;;;;;;;8.10;nan;100613.97;5012079;28;20418;-87
2023/04/16 02:14:07;;;;;;;;;;;;;;;8.11;nan;100609.56;5019327;28;19996;-87
2023/04/16 02:16:32;;;;;;;;;;;;;;;8.08;nan;100606.22;5026241;28;19925;-86
2023/04/16 02:18:57;;;;;;;;;;;;;;;8.07;nan;100608.97;5029331;28;19913;-86
2023/04/16 02:21:23;;;;;;;;;;;;;;;8.07;nan;100611.59;5019086;28;19944;-87
2023/04/16 02:23:50;;;;;;;;;;;;;;;8.05;nan;100603.81;5003066;28;20595;-87
2023/04/16 02:26:15;;;;;;;;;;;;;;;8.06;nan;100612.59;5019913;28;19913;-86
2023/04/16 02:28:41;;;;;;;;;;;;;;;8.08;nan;100608.84;5019785;28;19924;-87
2023/04/16 02:31:06;;;;;;;;;;;;;;;8.08;nan;100611.47;5019568;28;19920;-88
2023/04/16 02:33:31;;;;;;;;;;;;;;;8.06;nan;100613.41;5019669;28;19959;-87
2023/04/16 02:35:56;;;;;;;;;;;;;;;8.05;nan;100610.91;5028505;28;20015;-88
2023/04/16 02:38:21;;;;;;;;;;;;;;;8.03;nan;100616.31;5030562;28;19917;-87
2023/04/16 02:40:47;;;;;;;;;;;;;;;8.03;nan;100616.31;5017197;28;19920;-87
2023/04/16 02:43:12;;;;;;;;;;;;;;;8.03;nan;100618.94;5027620;28;19928;-86
2023/04/16 02:45:37;;;;;;;;;;;;;;;8.04;nan;100619.78;5017075;28;19929;-87
2023/04/16 02:48:03;;;;;;;;;;;;;;;8.04;nan;100622.41;5029902;28;19949;-87
2023/04/16 02:50:28;;;;;;;;;;;;;;;8.05;nan;100624.06;5009822;28;19917;-87
2023/04/16 02:52:53;;;;;;;;;;;;;;;8.06;nan;100620.47;4998271;28;19913;-85
2023/04/16 02:55:19;;;;;;;;;;;;;;;8.05;nan;100614.34;5012935;28;19917;-86
2023/04/16 02:57:44;;;;;;;;;;;;;;;8.06;nan;100615.22;5029009;28;19963;-85
2023/04/16 03:00:09;;;;;;;;;;;;;;;8.04;nan;100619.78;4997156;28;19917;-85
2023/04/16 03:02:34;;;;;;;;;;;;;;;8.02;nan;100621.72;5036118;28;20002;-88
2023/04/16 03:05:00;;;;;;;;;;;;;;;7.98;nan;100621.13;5023445;28;19923;-85
2023/04/16 03:07:25;;;;;;;;;;;;;;;7.98;nan;100620.28;5035796;28;20338;-87
2023/04/16 03:09:50;;;;;;;;;;;;;;;7.98;nan;100622.94;5056334;28;19995;-85
2023/04/16 03:12:15;;;;;;;;;;;;;;;7.97;nan;100614.22;5046587;28;19920;-86
2023/04/16 03:14:41;;;;;;;;;;;;;;;7.94;nan;100611.84;5027018;28;19960;-88
2023/04/16 03:17:06;;;;;;;;;;;;;;;7.93;nan;100620.69;5018529;28;19917;-86
2023/04/16 03:19:31;;;;;;;;;;;;;;;7.91;nan;100614.72;5028743;28;19956;-86
2023/04/16 03:21:56;;;;;;;;;;;;;;;7.91;nan;100614.72;5033897;28;20399;-85
2023/04/16 03:24:21;;;;;;;;;;;;;;;7.88;nan;100618.44;5032937;28;19999;-86
2023/04/16 03:26:47;;;;;;;;;;;;;;;7.91;nan;100625.25;5023701;28;19920;-86
2023/04/16 03:29:12;;;;;;;;;;;;;;;7.93;nan;100627.75;5016089;28;19923;-87
2023/04/16 03:31:37;;;;;;;;;;;;;;;7.92;nan;100629.56;5029300;28;19925;-86
2023/04/16 03:34:02;;;;;;;;;;;;;;;7.94;nan;100630.28;5014541;28;20530;-87
2023/04/16 03:36:27;;;;;;;;;;;;;;;7.97;nan;100635.28;5031945;28;20011;-87
2023/04/16 03:38:52;;;;;;;;;;;;;;;8.00;nan;100634.16;5015807;28;19917;-87
2023/04/16 03:41:18;;;;;;;;;;;;;;;8.00;nan;100636.81;5032358;28;19916;-85
2023/04/16 03:43:43;;;;;;;;;;;;;;;7.97;nan;100640.53;5013968;28;19963;-88
2023/04/16 03:46:08;;;;;;;;;;;;;;;7.98;nan;100641.38;5022462;28;19920;-86
2023/04/16 03:48:33;;;;;;;;;;;;;;;7.99;nan;100645.69;5012205;28;19979;-87
2023/04/16 03:50:58;;;;;;;;;;;;;;;8.00;nan;100642.91;5008020;28;19917;-86
2023/04/16 03:53:24;;;;;;;;;;;;;;;8.01;nan;100641.13;5030503;28;19913;-87
2023/04/16 03:55:50;;;;;;;;;;;;;;;8.03;nan;100641.78;5037518;28;20417;-87
2023/04/16 03:58:15;;;;;;;;;;;;;;;7.98;nan;100652.72;5032069;28;19924;-86
2023/04/16 04:00:41;;;;;;;;;;;;;;;7.99;nan;100646.50;5024211;28;19913;-86
2023/04/16 04:03:06;;;;;;;;;;;;;;;8.01;nan;100649.03;5031730;28;19924;-86
2023/04/16 04:05:35;;;;;;;;;;;;;;;8.03;nan;100650.56;5015336;28;20345;-86
2023/04/16 04:08:00;;;;;;;;;;;;;;;8.03;nan;100650.56;5027828;28;19939;-87
2023/04/16 04:10:25;;;;;;;;;;;;;;;8.06;nan;100654.72;5021280;28;19921;-87
2023/04/16 04:12:51;;;;;;;;;;;;;;;8.06;nan;100649.44;5029545;28;20290;-87
2023/04/16 04:15:16;;;;;;;;;;;;;;;8.07;nan;100659.00;5011150;28;19921;-86
2023/04/16 04:17:41;;;;;;;;;;;;;;;8.08;nan;100663.31;5031953;28;20430;-86
2023/04/16 04:20:06;;;;;;;;;;;;;;;8.08;nan;100658.06;5021919;28;20075;-86
2023/04/16 04:22:32;;;;;;;;;;;;;;;8.09;nan;100657.91;5031944;28;19943;-85
2023/04/16 04:24:57;;;;;;;;;;;;;;;8.11;nan;100662.22;5026052;28;19917;-86
2023/04/16 04:27:22;;;;;;;;;;;;;;;8.12;nan;100664.72;5031682;28;19928;-84
2023/04/16 04:29:47;;;;;;;;;;;;;;;8.12;nan;100663.88;5027644;28;19943;-87
2023/04/16 04:32:12;;;;;;;;;;;;;;;8.13;nan;100666.41;5015731;28;19921;-86
2023/04/16 04:34:38;;;;;;;;;;;;;;;8.13;nan;100666.41;5014159;28;19924;-86
2023/04/16 04:37:03;;;;;;;;;;;;;;;8.15;nan;100669.72;5031937;28;20573;-86
2023/04/16 04:39:28;;;;;;;;;;;;;;;8.17;nan;100665.13;5030709;28;19968;-86
2023/04/16 04:41:53;;;;;;;;;;;;;;;8.17;nan;100670.41;5028620;28;19956;-87
2023/04/16 04:44:18;;;;;;;;;;;;;;;8.17;nan;100673.03;5028993;28;20370;-85
2023/04/16 04:46:44;;;;;;;;;;;;;;;8.16;nan;100668.75;5031513;28;19913;-86
2023/04/16 04:49:09;;;;;;;;;;;;;;;8.18;nan;100674.72;5013442;28;19913;-87
2023/04/16 04:51:34;;;;;;;;;;;;;;;8.19;nan;100679.00;5029666;28;20382;-85
2023/04/16 04:53:59;;;;;;;;;;;;;;;8.20;nan;100682.47;5031700;28;19913;-86
2023/04/16 04:56:25;;;;;;;;;;;;;;;8.20;nan;100682.47;5021963;28;19917;-86
2023/04/16 04:58:50;;;;;;;;;;;;;;;8.17;nan;100688.84;5033658;28;19920;-86
2023/04/16 05:01:15;;;;;;;;;;;;;;;8.13;nan;100698.00;5019035;28;19920;-86
2023/04/16 05:03:40;;;;;;;;;;;;;;;8.13;nan;100692.72;5022852;28;20398;-87
2023/04/16 05:06:06;;;;;;;;;;;;;;;8.14;nan;100699.66;5030888;28;19917;-89
2023/04/16 05:08:31;;;;;;;;;;;;;;;8.16;nan;100703.00;5031480;28;20298;-85
2023/04/16 05:10:56;;;;;;;;;;;;;;;8.19;nan;100701.91;5019589;28;19917;-85
2023/04/16 05:13:22;;;;;;;;;;;;;;;8.20;nan;100709.69;5013647;28;20397;-87
2023/04/16 05:15:47;;;;;;;;;;;;;;;8.21;nan;100705.25;5016554;28;19918;-86
2023/04/16 05:18:12;;;;;;;;;;;;;;;8.21;nan;100700.78;5029809;28;19925;-86
2023/04/16 05:20:37;;;;;;;;;;;;;;;8.23;nan;100698.88;5029442;28;19925;-86
2023/04/16 05:23:02;;;;;;;;;;;;;;;8.25;nan;100702.22;5018655;28;20007;-86
2023/04/16 05:25:28;;;;;;;;;;;;;;;8.25;nan;100704.84;5023039;28;20000;-86
2023/04/16 05:27:53;;;;;;;;;;;;;;;8.28;nan;100703.75;5012746;28;20520;-86
2023/04/16 05:30:18;;;;;;;;;;;;;;;8.27;nan;100709.97;5027047;28;19913;-86
2023/04/16 05:32:43;;;;;;;;;;;;;;;8.25;nan;100709.28;5028524;28;19913;-85
2023/04/16 05:35:09;;;;;;;;;;;;;;;8.24;nan;100704.97;5016931;28;20008;-86
2023/04/16 05:37:34;;;;;;;;;;;;;;;8.25;nan;100707.47;5012298;28;19979;-86
2023/04/16 05:39:59;;;;;;;;;;;;;;;8.23;nan;100716.47;5017760;28;19920;-86
2023/04/16 05:42:24;;;;;;;;;;;;;;;8.24;nan;100713.69;5029848;28;20278;-85
2023/04/16 05:44:50;;;;;;;;;;;;;;;8.24;nan;100715.50;5012412;28;20412;-86
2023/04/16 05:47:16;;;;;;;;;;;;;;;8.23;nan;100719.13;5011967;28;19913;-85
2023/04/16 05:49:41;;;;;;;;;;;;;;;8.20;nan;100725.47;5019733;28;19913;-86
2023/04/16 05:52:06;;;;;;;;;;;;;;;8.24;nan;100724.22;5014923;28;20440;-86
2023/04/16 05:54:31;;;;;;;;;;;;;;;8.26;nan;100726.75;5027961;28;19924;-85
2023/04/16 05:56:57;;;;;;;;;;;;;;;8.19;nan;100729.06;5029855;28;20418;-86
2023/04/16 05:59:22;;;;;;;;;;;;;;;8.24;nan;100737.41;5029361;28;19921;-85
2023/04/16 06:01:47;;;;;;;;;;;;;;;8.24;nan;100734.78;5024107;28;19976;-86
2023/04/16 06:04:12;;;;;;;;;;;;;;;8.32;nan;100739.41;5025834;28;19917;-85
2023/04/16 06:06:39;;;;;;;;;;;;;;;8.30;nan;100734.25;5000219;28;19921;-85
2023/04/16 06:09:04;;;;;;;;;;;;;;;8.34;nan;100741.88;5016546;28;19949;-86
2023/04/16 06:11:29;;;;;;;;;;;;;;;8.37;nan;100742.47;5013325;28;19949;-86
2023/04/16 06:13:54;;;;;;;;;;;;;;;8.40;nan;100750.13;5016308;28;20000;-85
2023/04/16 06:16:20;;;;;;;;;;;;;;;8.37;nan;100752.19;5029299;28;19940;-86
2023/04/16 06:18:45;;;;;;;;;;;;;;;8.36;nan;100751.31;5029166;28;19916;-86
2023/04/16 06:21:10;;;;;;;;;;;;;;;8.36;nan;100755.78;5019810;28;19919;-85
2023/04/16 06:23:36;;;;;;;;;;;;;;;8.31;nan;100750.88;5029334;28;19917;-86
2023/04/16 06:26:01;;;;;;;;;;;;;;;8.29;nan;100748.41;5014771;28;20357;-86
2023/04/16 06:28:26;;;;;;;;;;;;;;;8.26;nan;100745.19;5016808;28;19920;-87
2023/04/16 06:30:51;;;;;;;;;;;;;;;8.33;nan;100754.22;5029170;28;20040;-86
2023/04/16 06:33:16;;;;;;;;;;;;;;;8.32;nan;100760.47;5029361;28;20489;-85
2023/04/16 06:35:42;;;;;;;;;;;;;;;8.28;nan;100756.44;5030214;28;19929;-86
2023/04/16 06:38:07;;;;;;;;;;;;;;;8.33;nan;100756.03;5012534;28;19963;-84
2023/04/16 06:40:32;;;;;;;;;;;;;;;8.39;nan;100758.13;5014176;28;19966;-86
2023/04/16 06:42:57;;;;;;;;;;;;;;;8.39;nan;100758.13;5030101;28;19916;-85
2023/04/16 06:45:22;;;;;;;;;;;;;;;8.42;nan;100756.13;5031091;28;19928;-85
2023/04/16 06:47:48;;;;;;;;;;;;;;;8.41;nan;100764.97;5022002;28;19917;-85
2023/04/16 06:50:13;;;;;;;;;;;;;;;8.43;nan;100770.13;5010871;28;19919;-85
2023/04/16 06:52:39;;;;;;;;;;;;;;;8.43;nan;100775.38;5028828;28;19986;-85
2023/04/16 06:55:06;;;;;;;;;;;;;;;8.45;nan;100771.66;5010878;28;19920;-85
2023/04/16 06:57:31;;;;;;;;;;;;;;;8.48;nan;100775.81;5029295;28;19943;-85
2023/04/16 06:59:56;;;;;;;;;;;;;;;8.48;nan;100781.09;5013147;28;20008;-86
2023/04/16 07:02:21;;;;;;;;;;;;;;;8.50;nan;100780.00;5028833;28;19920;-85
2023/04/16 07:04:46;;;;;;;;;;;;;;;8.47;nan;100782.06;5025888;28;19953;-85
2023/04/16 07:07:11;;;;;;;;;;;;;;;8.45;nan;100776.91;5019517;28;20003;-85
2023/04/16 07:09:37;;;;;;;;;;;;;;;8.45;nan;100774.28;5014695;28;19924;-85
2023/04/16 07:12:02;;;;;;;;;;;;;;;8.46;nan;100778.59;5011282;28;19921;-86
2023/04/16 07:14:27;;;;;;;;;;;;;;;8.45;nan;100776.91;5028976;28;19913;-85
2023/04/16 07:16:52;;;;;;;;;;;;;;;8.47;nan;100776.81;5028581;28;20530;-85
2023/04/16 07:19:18;;;;;;;;;;;;;;;8.43;nan;100770.94;5015036;28;19920;-85
2023/04/16 07:21:43;;;;;;;;;;;;;;;8.43;nan;100773.56;5029338;28;19943;-85
2023/04/16 07:24:09;;;;;;;;;;;;;;;8.43;nan;100778.03;5028484;28;19913;-85
2023/04/16 07:26:34;;;;;;;;;;;;;;;8.49;nan;100772.25;5029038;28;20375;-83
2023/04/16 07:29:00;;;;;;;;;;;;;;;8.57;nan;100768.94;5011327;28;19920;-86
2023/04/16 07:31:25;;;;;;;;;;;;;;;8.60;nan;100779.19;5016812;28;19913;-84
2023/04/16 07:33:50;;;;;;;;;;;;;;;8.62;nan;100778.09;5006365;28;19983;-85
2023/04/16 07:36:15;;;;;;;;;;;;;;;8.71;nan;100779.13;5023126;28;19921;-85
2023/04/16 07:38:41;;;;;;;;;;;;;;;8.77;nan;100783.88;5019106;28;19917;-86
2023/04/16 07:41:06;;;;;;;;;;;;;;;8.79;nan;100789.81;5029018;28;19944;-85
2023/04/16 07:43:31;;;;;;;;;;;;;;;8.83;nan;100790.41;5009162;28;20368;-85
2023/04/16 07:45:56;;;;;;;;;;;;;;;8.97;nan;100786.56;5018801;28;19919;-85
2023/04/16 07:48:22;;;;;;;;;;;;;;;9.04;nan;100791.16;5027972;28;19988;-85
2023/04/16 07:50:48;;;;;;;;;;;;;;;9.06;nan;100791.84;5011200;28;19914;-86
2023/04/16 07:53:14;;;;;;;;;;;;;;;9.06;nan;100789.22;5028772;28;19947;-84
2023/04/16 07:55:39;;;;;;;;;;;;;;;9.01;nan;100793.22;5032367;28;19917;-86
2023/04/16 07:58:06;;;;;;;;;;;;;;;8.99;nan;100793.38;5030159;28;19925;-86
2023/04/16 08:00:32;;;;;;;;;;;;;;;8.95;nan;100789.31;5036182;28;20003;-86
2023/04/16 08:02:57;;;;;;;;;;;;;;;8.99;nan;100801.28;5018100;28;20016;-85
2023/04/16 08:05:22;;;;;;;;;;;;;;;8.99;nan;100800.44;5017190;28;19960;-86
2023/04/16 08:07:47;;;;;;;;;;;;;;;8.97;nan;100797.09;5030738;28;20314;-86
2023/04/16 08:10:12;;;;;;;;;;;;;;;8.97;nan;100808.47;5031522;28;19917;-86
2023/04/16 08:12:38;;;;;;;;;;;;;;;8.97;nan;100808.47;5030068;28;19920;-86
2023/04/16 08:15:03;;;;;;;;;;;;;;;8.96;nan;100812.06;5025392;28;20024;-87
2023/04/16 08:17:28;;;;;;;;;;;;;;;9.03;nan;100813.19;5015111;28;19986;-87
2023/04/16 08:19:54;;;;;;;;;;;;;;;9.02;nan;100808.91;5033028;28;19917;-86
2023/04/16 08:22:19;;;;;;;;;;;;;;;8.87;nan;100820.81;5015011;28;19912;-86
2023/04/16 08:24:44;;;;;;;;;;;;;;;8.81;nan;100819.53;5034008;28;20397;-86
2023/04/16 08:27:10;;;;;;;;;;;;;;;8.75;nan;100825.34;5032248;28;19956;-85
2023/04/16 08:29:36;;;;;;;;;;;;;;;8.79;nan;100823.25;5017021;28;19974;-86
2023/04/16 08:32:01;;;;;;;;;;;;;;;8.76;nan;100824.38;5027001;28;19917;-87
2023/04/16 08:34:26;;;;;;;;;;;;;;;8.74;nan;100834.22;5034916;28;20318;-86
2023/04/16 08:36:51;;;;;;;;;;;;;;;8.71;nan;100835.31;5042632;28;19951;-85
2023/04/16 08:39:17;;;;;;;;;;;;;;;8.71;nan;100837.13;5064012;28;19913;-86
2023/04/16 08:41:43;;;;;;;;;;;;;;;8.69;nan;100844.31;5055167;28;19948;-87
2023/04/16 08:44:10;;;;;;;;;;;;;;;8.66;nan;100836.69;5047932;28;19917;-85
2023/04/16 08:46:36;;;;;;;;;;;;;;;8.66;nan;100845.41;5031499;28;19917;-86
2023/04/16 08:49:04;;;;;;;;;;;;;;;8.66;nan;100839.31;5025699;28;19913;-86
2023/04/16 08:51:32;;;;;;;;;;;;;;;8.64;nan;100846.53;5041236;28;19985;-87
2023/04/16 08:54:07;;;;;;;;;;;;;;;8.71;nan;100851.13;5031245;28;19913;-86
2023/04/16 08:56:35;;;;;;;;;;;;;;;8.75;nan;100854.34;5020377;28;20002;-85
2023/04/16 08:59:04;;;;;;;;;;;;;;;8.74;nan;100854.47;5018672;28;19917;-86
2023/04/16 09:01:29;;;;;;;;;;;;;;;8.71;nan;100856.41;5023687;28;19963;-86
2023/04/16 09:03:54;;;;;;;;;;;;;;;8.74;nan;100855.28;5035476;28;19917;-87
2023/04/16 09:06:20;;;;;;;;;;;;;;;8.74;nan;100857.94;5034671;28;19913;-86
2023/04/16 09:08:45;;;;;;;;;;;;;;;8.76;nan;100858.66;5028555;28;19968;-86
2023/04/16 09:11:12;;;;;;;;;;;;;;;8.69;nan;100863.59;5042709;28;19927;-86
2023/04/16 09:13:37;;;;;;;;;;;;;;;8.62;nan;100861.63;5040080;28;19924;-85
2023/04/16 09:16:02;;;;;;;;;;;;;;;8.65;nan;100866.63;5031840;28;19921;-87
2023/04/16 09:18:32;;;;;;;;;;;;;;;8.56;nan;100870.91;5021401;28;19940;-86
2023/04/16 09:20:57;;;;;;;;;;;;;;;8.53;nan;100871.13;5023847;28;19989;-88
2023/04/16 09:23:25;;;;;;;;;;;;;;;8.52;nan;100872.13;5020645;28;20239;-85
2023/04/16 09:25:51;;;;;;;;;;;;;;;8.54;nan;100869.38;5014233;28;20007;-86
2023/04/16 09:28:35;;;;;;;;;;;;;;;8.53;nan;100873.78;5017761;28;19960;-87
2023/04/16 09:31:07;;;;;;;;;;;;;;;8.56;nan;100877.97;5033403;28;19975;-88
2023/04/16 09:33:32;;;;;;;;;;;;;;;8.52;nan;100879.19;5013460;28;19948;-86
2023/04/16 09:35:58;;;;;;;;;;;;;;;8.54;nan;100880.72;5016024;28;19961;-87
2023/04/16 09:38:25;;;;;;;;;;;;;;;8.59;nan;100882.97;5029238;28;19917;-86
2023/04/16 09:41:04;;;;;;;;;;;;;;;8.61;nan;100881.88;5035052;28;19917;-86
2023/04/16 09:43:30;;;;;;;;;;;;;;;8.60;nan;100887.28;5014453;28;20193;-87
2023/04/16 09:45:55;;;;;;;;;;;;;;;8.53;nan;100889.59;5013682;28;19917;-85
2023/04/16 09:48:31;;;;;;;;;;;;;;;8.54;nan;100888.66;5026668;28;19966;-85
2023/04/16 09:50:56;;;;;;;;;;;;;;;8.55;nan;100887.66;5020608;28;19926;-88
2023/04/16 09:53:31;;;;;;;;;;;;;;;8.62;nan;100890.63;5029069;28;19918;-86
2023/04/16 09:55:57;;;;;;;;;;;;;;;8.64;nan;100892.16;5016200;28;20006;-87
2023/04/16 09:58:23;;;;;;;;;;;;;;;8.63;nan;100893.13;5004835;28;20056;-87
2023/04/16 10:00:48;;;;;;;;;;;;;;;8.66;nan;100899.94;5009682;28;19928;-88
2023/04/16 10:03:14;;;;;;;;;;;;;;;8.67;nan;100898.97;5030292;28;20325;-86
2023/04/16 10:05:40;;;;;;;;;;;;;;;8.68;nan;100892.75;5011098;28;19917;-86
2023/04/16 10:08:11;;;;;;;;;;;;;;;8.61;nan;100894.25;5027760;28;19999;-87
2023/04/16 10:10:37;;;;;;;;;;;;;;;8.61;nan;100894.25;5011582;28;19925;-87
2023/04/16 10:13:02;;;;;;;;;;;;;;;8.66;nan;100892.88;5010720;28;19921;-86
2023/04/16 10:15:28;;;;;;;;;;;;;;;8.70;nan;100899.56;5009384;28;19987;-87
2023/04/16 10:18:02;;;;;;;;;;;;;;;8.73;nan;100897.63;5020520;28;19923;-88
2023/04/16 10:20:27;;;;;;;;;;;;;;;8.66;nan;100906.06;5006779;28;20388;-87
2023/04/16 10:22:53;;;;;;;;;;;;;;;8.74;nan;100910.66;5030951;28;19912;-88
2023/04/16 10:25:24;;;;;;;;;;;;;;;8.75;nan;100911.50;5032888;28;19916;-89
2023/04/16 10:27:50;;;;;;;;;;;;;;;8.67;nan;100909.50;5020242;28;20370;-88
2023/04/16 10:30:21;;;;;;;;;;;;;;;8.78;nan;100914.72;5007366;28;20016;-89
2023/04/16 10:32:46;;;;;;;;;;;;;;;8.81;nan;100906.53;5028200;28;20024;-88
2023/04/16 10:35:25;;;;;;;;;;;;;;;8.82;nan;100917.91;5018857;28;20024;-88
2023/04/16 10:37:55;;;;;;;;;;;;;;;8.83;nan;100911.69;5023794;28;19928;-88
2023/04/16 10:40:21;;;;;;;;;;;;;;;8.83;nan;100909.88;5011703;28;20485;-90
2023/04/16 10:42:57;;;;;;;;;;;;;;;8.86;nan;100914.06;5011926;28;20480;-87
2023/04/16 10:45:29;;;;;;;;;;;;;;;8.87;nan;100921.03;5024919;28;20446;-90
2023/04/16 10:47:56;;;;;;;;;;;;;;;8.92;nan;100911.75;5006839;28;20375;-88
2023/04/16 10:50:21;;;;;;;;;;;;;;;8.94;nan;100919.53;5023300;28;19925;-88
2023/04/16 10:52:46;;;;;;;;;;;;;;;9.02;nan;100917.06;5038557;28;19917;-88
2023/04/16 10:55:16;;;;;;;;;;;;;;;8.96;nan;100907.03;5020881;28;19917;-88
2023/04/16 10:57:41;;;;;;;;;;;;;;;9.05;nan;100910.69;5020611;28;19924;-87
2023/04/16 11:00:32;;;;;;;;;;;;;;;9.10;nan;100908.47;5019715;28;19916;-89
2023/04/16 11:02:58;;;;;;;;;;;;;;;9.10;nan;100903.19;5009046;28;19917;-87
2023/04/16 11:05:23;;;;;;;;;;;;;;;9.11;nan;100911.00;5031673;28;20016;-86
2023/04/16 11:07:48;;;;;;;;;;;;;;;9.13;nan;100911.69;5029933;28;20371;-86
2023/04/16 11:10:14;;;;;;;;;;;;;;;9.14;nan;100909.88;5021759;28;19932;-86
2023/04/16 11:12:45;;;;;;;;;;;;;;;9.17;nan;100904.34;5030532;28;19956;-86
2023/04/16 11:15:20;;;;;;;;;;;;;;;9.24;nan;100912.56;5026848;28;19917;-87
2023/04/16 11:17:46;;;;;;;;;;;;;;;9.21;nan;100915.47;5036569;28;20012;-87
2023/04/16 11:20:15;;;;;;;;;;;;;;;9.25;nan;100912.44;5030039;28;19980;-87
2023/04/16 11:22:40;;;;;;;;;;;;;;;9.31;nan;100911.88;5016531;28;19917;-84
2023/04/16 11:25:06;;;;;;;;;;;;;;;9.42;nan;100918.06;5032208;28;19917;-85
2023/04/16 11:27:31;;;;;;;;;;;;;;;9.54;nan;100917.78;5014984;28;20793;-84
2023/04/16 11:29:57;;;;;;;;;;;;;;;9.61;nan;100909.34;5035640;28;20063;-86
2023/04/16 11:32:23;;;;;;;;;;;;;;;9.53;nan;100910.84;5024028;28;19916;-85
2023/04/16 11:34:48;;;;;;;;;;;;;;;9.56;nan;100910.56;5037905;28;19924;-84
2023/04/16 11:37:13;;;;;;;;;;;;;;;9.54;nan;100909.03;5034772;28;19921;-84
2023/04/16 11:39:49;;;;;;;;;;;;;;;9.59;nan;100900.72;5022633;28;19928;-85
2023/04/16 11:42:18;;;;;;;;;;;;;;;9.62;nan;100903.09;5032682;28;19917;-85
2023/04/16 11:44:43;;;;;;;;;;;;;;;9.67;nan;100904.31;5026494;28;20442;-84
2023/04/16 11:47:08;;;;;;;;;;;;;;;9.68;nan;100911.28;5035566;28;20015;-83
2023/04/16 11:49:33;;;;;;;;;;;;;;;9.74;nan;100905.44;5016489;28;19955;-84
2023/04/16 11:51:59;;;;;;;;;;;;;;;9.71;nan;100905.72;5033871;28;19921;-85
2023/04/16 11:54:24;;;;;;;;;;;;;;;9.81;nan;100911.03;5019503;28;19917;-85
2023/04/16 11:56:50;;;;;;;;;;;;;;;9.87;nan;100912.31;5033304;28;20023;-83
2023/04/16 11:59:21;;;;;;;;;;;;;;;10.00;nan;100911.03;5012776;28;19917;-84
2023/04/16 12:01:47;;;;;;;;;;;;;;;10.10;nan;100908.38;5030160;28;20275;-83
2023/04/16 12:04:14;;;;;;;;;;;;;;;10.14;nan;100909.78;5031393;28;19917;-85
2023/04/16 12:06:40;;;;;;;;;;;;;;;10.23;nan;100912.59;5033848;28;19964;-84
2023/04/16 12:09:21;;;;;;;;;;;;;;;10.31;nan;100915.38;5022151;28;19983;-85
2023/04/16 12:11:46;;;;;;;;;;;;;;;10.35;nan;100911.50;5018070;28;19972;-84
2023/04/16 12:14:11;;;;;;;;;;;;;;;10.42;nan;100912.59;5022181;28;19971;-85
2023/04/16 12:16:37;;;;;;;;;;;;;;;10.35;nan;100919.41;5016556;28;19932;-86
2023/04/16 12:19:02;;;;;;;;;;;;;;;10.37;nan;100915.66;5017039;28;20063;-84
2023/04/16 12:21:38;;;;;;;;;;;;;;;10.30;nan;100905.78;5026756;28;19936;-85
2023/04/16 12:24:03;;;;;;;;;;;;;;;10.27;nan;100906.84;5032184;28;19974;-85
2023/04/16 12:26:49;;;;;;;;;;;;;;;10.40;nan;100914.53;5023543;28;19992;-85
2023/04/16 12:29:14;;;;;;;;;;;;;;;10.37;nan;100912.19;5024444;28;19913;-84
2023/04/16 12:31:40;;;;;;;;;;;;;;;10.23;nan;100909.94;5031492;28;19916;-83
2023/04/16 12:34:05;;;;;;;;;;;;;;;10.13;nan;100916.06;5029805;28;20369;-83
2023/04/16 12:36:30;;;;;;;;;;;;;;;10.10;nan;100913.69;5033012;28;19921;-82
2023/04/16 12:38:55;;;;;;;;;;;;;;;10.10;nan;100918.13;5036411;28;19959;-84
2023/04/16 12:41:20;;;;;;;;;;;;;;;10.17;nan;100920.06;5021033;28;20003;-82
2023/04/16 12:43:46;;;;;;;;;;;;;;;10.18;nan;100920.94;5018187;28;19917;-84
2023/04/16 12:46:11;;;;;;;;;;;;;;;10.10;nan;100918.13;5033627;28;19927;-83
2023/04/16 12:48:36;;;;;;;;;;;;;;;10.09;nan;100924.41;5011150;28;19924;-83
2023/04/16 12:51:02;;;;;;;;;;;;;;;10.10;nan;100916.31;5028382;28;19929;-83
2023/04/16 12:53:27;;;;;;;;;;;;;;;10.16;nan;100923.69;5016293;28;19921;-83
2023/04/16 12:55:52;;;;;;;;;;;;;;;10.18;nan;100927.03;5032181;28;19948;-83
2023/04/16 12:58:17;;;;;;;;;;;;;;;10.13;nan;100923.13;5032089;28;19971;-84
2023/04/16 13:00:43;;;;;;;;;;;;;;;10.09;nan;100921.75;5014625;28;19924;-84